createdAt,value
2019-03-30T00:00:28.517Z,101883.12
2019-03-30T00:02:55.990Z,101876.45
2019-03-30T00:05:23.785Z,101874.84
2019-03-30T00:07:50.988Z,101873.21
2019-03-30T00:10:18.298Z,101870.50
2019-03-30T00:12:45.508Z,101864.95
2019-03-30T00:15:12.719Z,101861.42
2019-03-30T00:17:40.551Z,101864.81
2019-03-30T00:20:08.028Z,101863.11
2019-03-30T00:22:35.317Z,101854.08
2019-03-30T00:25:02.760Z,101851.27
2019-03-30T00:27:29.959Z,101847.19
2019-03-30T00:29:57.196Z,101851.70
2019-03-30T00:32:24.393Z,101845.28
2019-03-30T00:34:51.612Z,101842.28
2019-03-30T00:37:18.931Z,101845.66
2019-03-30T00:39:46.383Z,101841.62
2019-03-30T00:42:13.702Z,101837.96
2019-03-30T00:44:40.899Z,101839.12
2019-03-30T00:47:08.127Z,101834.25
2019-03-30T00:49:48.127Z,101832.41
2019-03-30T00:52:04.542Z,101827.28
2019-03-30T00:54:31.750Z,101830.50
2019-03-30T00:56:58.953Z,101829.76
2019-03-30T00:59:26.189Z,101826.52
2019-03-30T01:01:53.484Z,101830.27
2019-03-30T01:04:20.713Z,101825.39
2019-03-30T01:06:47.946Z,101825.06
2019-03-30T01:09:15.353Z,101823.47
2019-03-30T01:11:42.659Z,101823.39
2019-03-30T01:14:09.866Z,101820.86
2019-03-30T01:16:37.151Z,101816.36
2019-03-30T01:19:04.386Z,101820.44
2019-03-30T01:21:31.574Z,101818.81
2019-03-30T01:23:58.809Z,101813.77
2019-03-30T01:26:26.211Z,101811.06
2019-03-30T01:28:53.404Z,101805.48
2019-03-30T01:31:20.607Z,101806.73
2019-03-30T01:33:47.854Z,101801.38
2019-03-30T01:36:15.046Z,101803.66
2019-03-30T01:38:42.276Z,101802.56
2019-03-30T01:41:09.485Z,101797.06
2019-03-30T01:43:36.684Z,101790.84
2019-03-30T01:46:03.987Z,101786.23
2019-03-30T01:48:31.169Z,101782.03
2019-03-30T01:50:58.406Z,101784.39
2019-03-30T01:53:25.605Z,101780.78
2019-03-30T01:55:52.822Z,101776.16
2019-03-30T01:58:20.150Z,101772.51
2019-03-30T02:00:47.462Z,101774.17
2019-03-30T02:03:14.775Z,101776.16
2019-03-30T02:05:41.990Z,101771.91
2019-03-30T02:08:09.241Z,101770.42
2019-03-30T02:10:43.573Z,101776.75
2019-03-30T02:13:10.997Z,101771.52
2019-03-30T02:15:38.436Z,101774.16
2019-03-30T02:18:05.753Z,101783.19
2019-03-30T02:20:37.903Z,101777.69
2019-03-30T02:23:05.287Z,101773.60
2019-03-30T02:25:32.544Z,101764.63
2019-03-30T02:27:59.743Z,101763.08
2019-03-30T02:30:26.957Z,101759.95
2019-03-30T02:32:54.278Z,101752.02
2019-03-30T02:35:26.291Z,101745.78
2019-03-30T02:37:51.807Z,101747.32
2019-03-30T02:40:19.036Z,101744.10
2019-03-30T02:42:46.367Z,101742.14
2019-03-30T02:45:14.784Z,101743.38
2019-03-30T02:47:42.092Z,101746.18
2019-03-30T02:50:09.736Z,101742.29
2019-03-30T02:52:37.923Z,101739.20
2019-03-30T02:55:05.244Z,101736.11
2019-03-30T02:57:32.779Z,101730.08
2019-03-30T03:00:00.213Z,101725.63
2019-03-30T03:02:27.696Z,101726.64
2019-03-30T03:04:54.905Z,101727.74
2019-03-30T03:07:22.109Z,101718.01
2019-03-30T03:09:49.413Z,101721.75
2019-03-30T03:12:16.617Z,101717.94
2019-03-30T03:14:43.806Z,101719.46
2019-03-30T03:17:11.005Z,101711.27
2019-03-30T03:19:38.217Z,101708.26
2019-03-30T03:22:05.415Z,101702.81
2019-03-30T03:24:33.622Z,101700.31
2019-03-30T03:27:00.921Z,101697.47
2019-03-30T03:29:28.147Z,101699.76
2019-03-30T03:31:55.475Z,101700.91
2019-03-30T03:34:22.694Z,101699.22
2019-03-30T03:36:49.962Z,101691.98
2019-03-30T03:39:17.439Z,101688.84
2019-03-30T03:41:44.653Z,101686.84
2019-03-30T03:44:11.855Z,101679.28
2019-03-30T03:46:39.182Z,101677.67
2019-03-30T03:49:06.389Z,101674.89
2019-03-30T03:51:33.698Z,101674.98
2019-03-30T03:54:01.470Z,101664.90
2019-03-30T03:56:28.789Z,101661.53
2019-03-30T03:58:56.522Z,101668.94
2019-03-30T04:01:25.272Z,101661.00
2019-03-30T04:03:52.781Z,101659.12
2019-03-30T04:06:21.994Z,101658.48
2019-03-30T04:08:52.723Z,101658.48
2019-03-30T04:11:21.873Z,101657.74
2019-03-30T04:13:51.296Z,101654.02
2019-03-30T04:16:18.706Z,101642.84
2019-03-30T04:18:48.321Z,101641.34
2019-03-30T04:21:15.179Z,101637.30
2019-03-30T04:23:42.331Z,101634.81
2019-03-30T04:26:09.681Z,101636.30
2019-03-30T04:28:36.893Z,101626.50
2019-03-30T04:31:04.108Z,101632.20
2019-03-30T04:33:31.327Z,101624.95
2019-03-30T04:35:58.769Z,101616.65
2019-03-30T04:38:26.068Z,101612.84
2019-03-30T04:40:54.254Z,101615.06
2019-03-30T04:43:21.479Z,101613.08
2019-03-30T04:45:48.708Z,101608.09
2019-03-30T04:48:15.918Z,101602.95
2019-03-30T04:50:43.238Z,101605.23
2019-03-30T04:53:10.436Z,101598.50
2019-03-30T04:55:38.151Z,101599.14
2019-03-30T04:58:08.899Z,101601.29
2019-03-30T05:00:34.571Z,101598.95
2019-03-30T05:03:01.966Z,101596.96
2019-03-30T05:05:29.366Z,101596.72
2019-03-30T05:07:56.573Z,101597.91
2019-03-30T05:10:23.803Z,101588.69
2019-03-30T05:12:51.017Z,101594.11
2019-03-30T05:15:18.238Z,101587.50
2019-03-30T05:17:47.890Z,101586.05
2019-03-30T05:20:14.764Z,101593.72
2019-03-30T05:22:41.978Z,101589.78
2019-03-30T05:25:09.389Z,101586.12
2019-03-30T05:27:36.595Z,101579.43
2019-03-30T05:30:05.090Z,101585.30
2019-03-30T05:32:32.387Z,101580.02
2019-03-30T05:34:59.601Z,101581.14
2019-03-30T05:37:26.920Z,101579.22
2019-03-30T05:39:54.238Z,101580.47
2019-03-30T05:42:22.313Z,101584.13
2019-03-30T05:44:49.617Z,101578.42
2019-03-30T05:47:16.974Z,101573.94
2019-03-30T05:49:44.180Z,101574.98
2019-03-30T05:52:25.497Z,101569.91
2019-03-30T05:54:40.558Z,101570.95
2019-03-30T05:57:07.760Z,101572.91
2019-03-30T05:59:34.958Z,101572.50
2019-03-30T06:02:02.184Z,101567.59
2019-03-30T06:04:29.396Z,101572.34
2019-03-30T06:06:56.593Z,101578.78
2019-03-30T06:09:23.834Z,101576.94
2019-03-30T06:11:51.134Z,101578.94
2019-03-30T06:14:18.330Z,101575.45
2019-03-30T06:16:45.536Z,101575.45
2019-03-30T06:19:12.850Z,101570.22
2019-03-30T06:21:40.228Z,101570.06
2019-03-30T06:24:08.526Z,101572.18
2019-03-30T06:26:35.728Z,101571.56
2019-03-30T06:29:03.074Z,101571.93
2019-03-30T06:31:31.369Z,101569.28
2019-03-30T06:33:58.575Z,101567.15
2019-03-30T06:36:25.886Z,101567.52
2019-03-30T06:38:53.116Z,101561.53
2019-03-30T06:41:20.378Z,101559.71
2019-03-30T06:43:47.598Z,101566.33
2019-03-30T06:46:14.922Z,101566.63
2019-03-30T06:48:42.109Z,101570.28
2019-03-30T06:51:09.347Z,101572.30
2019-03-30T06:53:36.746Z,101579.14
2019-03-30T06:56:04.053Z,101573.92
2019-03-30T06:58:31.468Z,101571.26
2019-03-30T07:00:58.682Z,101574.31
2019-03-30T07:03:26.310Z,101574.39
2019-03-30T07:05:54.431Z,101575.13
2019-03-30T07:08:22.136Z,101578.09
2019-03-30T07:10:49.470Z,101583.34
2019-03-30T07:13:16.770Z,101582.50
2019-03-30T07:15:50.038Z,101577.97
2019-03-30T07:18:17.787Z,101579.00
2019-03-30T07:20:45.290Z,101579.77
2019-03-30T07:23:13.047Z,101581.86
2019-03-30T07:25:40.548Z,101574.20
2019-03-30T07:28:07.879Z,101578.33
2019-03-30T07:30:35.097Z,101571.22
2019-03-30T07:33:02.305Z,101576.49
2019-03-30T07:35:29.766Z,101574.91
2019-03-30T07:37:57.086Z,101573.14
2019-03-30T07:40:24.295Z,101571.66
2019-03-30T07:42:51.738Z,101573.78
2019-03-30T07:45:19.093Z,101580.05
2019-03-30T07:47:46.320Z,101580.18
2019-03-30T07:50:14.556Z,101577.03
2019-03-30T07:52:41.758Z,101574.88
2019-03-30T07:55:09.197Z,101573.97
2019-03-30T07:57:36.502Z,101572.31
2019-03-30T08:00:04.040Z,101571.16
2019-03-30T08:02:31.680Z,101572.09
2019-03-30T08:04:58.923Z,101572.09
2019-03-30T08:07:26.237Z,101571.61
2019-03-30T08:09:53.470Z,101572.09
2019-03-30T08:12:20.682Z,101572.91
2019-03-30T08:14:47.880Z,101571.46
2019-03-30T08:17:15.136Z,101571.89
2019-03-30T08:19:42.349Z,101571.89
2019-03-30T08:22:09.568Z,101561.06
2019-03-30T08:24:36.906Z,101558.25
2019-03-30T08:27:04.105Z,101557.42
2019-03-30T08:29:31.330Z,101557.42
2019-03-30T08:31:58.688Z,101553.88
2019-03-30T08:34:25.881Z,101550.52
2019-03-30T08:36:53.095Z,101541.14
2019-03-30T08:39:20.328Z,101548.62
2019-03-30T08:41:47.523Z,101553.06
2019-03-30T08:44:14.732Z,101538.58
2019-03-30T08:46:42.947Z,101538.58
2019-03-30T08:49:10.198Z,101535.39
2019-03-30T08:51:37.512Z,101548.05
2019-03-30T08:54:04.968Z,101548.05
2019-03-30T08:56:32.285Z,101539.73
2019-03-30T08:58:59.501Z,101539.05
2019-03-30T09:01:26.728Z,101536.17
2019-03-30T09:03:55.153Z,101537.98
2019-03-30T09:06:23.473Z,101528.63
2019-03-30T09:08:50.895Z,101530.67
2019-03-30T09:11:18.105Z,101531.89
2019-03-30T09:13:45.322Z,101524.84
2019-03-30T09:16:12.666Z,101528.14
2019-03-30T09:18:40.074Z,101526.72
2019-03-30T09:21:07.406Z,101517.91
2019-03-30T09:23:34.733Z,101519.17
2019-03-30T09:26:03.009Z,101524.87
2019-03-30T09:28:30.209Z,101518.27
2019-03-30T09:30:57.547Z,101526.91
2019-03-30T09:33:24.869Z,101521.11
2019-03-30T09:35:52.244Z,101526.63
2019-03-30T09:38:19.493Z,101528.56
2019-03-30T09:40:46.878Z,101525.16
2019-03-30T09:43:14.206Z,101514.45
2019-03-30T09:45:42.058Z,101515.58
2019-03-30T09:48:10.914Z,101513.89
2019-03-30T09:50:38.267Z,101512.77
2019-03-30T09:53:05.512Z,101517.70
2019-03-30T09:55:32.806Z,101514.59
2019-03-30T09:58:00.020Z,101506.09
2019-03-30T10:00:27.260Z,101506.20
2019-03-30T10:02:54.552Z,101503.10
2019-03-30T10:05:21.870Z,101503.36
2019-03-30T10:07:49.225Z,101501.80
2019-03-30T10:10:16.652Z,101491.88
2019-03-30T10:12:43.942Z,101495.01
2019-03-30T10:15:12.379Z,101490.86
2019-03-30T10:17:39.687Z,101492.77
2019-03-30T10:20:07.755Z,101502.41
2019-03-30T10:22:35.138Z,101485.89
2019-03-30T10:25:02.599Z,101486.19
2019-03-30T10:27:31.200Z,101482.48
2019-03-30T10:29:58.431Z,101484.92
2019-03-30T10:32:27.537Z,101481.50
2019-03-30T10:34:55.455Z,101478.13
2019-03-30T10:37:22.768Z,101478.16
2019-03-30T10:39:50.115Z,101482.83
2019-03-30T10:42:17.702Z,101475.61
2019-03-30T10:44:44.890Z,101475.30
2019-03-30T10:47:12.353Z,101477.18
2019-03-30T10:49:41.534Z,101472.44
2019-03-30T10:52:09.177Z,101473.77
2019-03-30T10:54:36.496Z,101476.64
2019-03-30T10:57:03.948Z,101470.10
2019-03-30T10:59:31.179Z,101464.20
2019-03-30T11:01:58.506Z,101464.02
2019-03-30T11:04:25.839Z,101462.67
2019-03-30T11:06:53.040Z,101461.47
2019-03-30T11:09:20.360Z,101455.14
2019-03-30T11:11:47.798Z,101451.69
2019-03-30T11:14:15.121Z,101456.92
2019-03-30T11:16:42.535Z,101448.34
2019-03-30T11:19:09.745Z,101454.20
2019-03-30T11:21:36.953Z,101449.38
2019-03-30T11:24:06.738Z,101452.30
2019-03-30T11:26:33.306Z,101446.86
2019-03-30T11:29:00.621Z,101434.98
2019-03-30T11:31:27.957Z,101449.16
2019-03-30T11:33:55.185Z,101440.14
2019-03-30T11:36:22.417Z,101434.76
2019-03-30T11:38:49.734Z,101429.97
2019-03-30T11:41:17.074Z,101428.86
2019-03-30T11:43:44.334Z,101425.84
2019-03-30T11:46:11.547Z,101421.23
2019-03-30T11:48:41.209Z,101418.34
2019-03-30T11:51:08.498Z,101415.64
2019-03-30T11:53:35.725Z,101406.16
2019-03-30T11:56:03.042Z,101408.50
2019-03-30T11:58:30.257Z,101398.59
2019-03-30T12:00:57.482Z,101402.20
2019-03-30T12:03:24.695Z,101391.03
2019-03-30T12:05:52.000Z,101387.17
2019-03-30T12:08:19.232Z,101383.17
2019-03-30T12:10:46.461Z,101385.12
2019-03-30T12:13:13.663Z,101386.98
2019-03-30T12:15:41.009Z,101383.80
2019-03-30T12:18:08.294Z,101371.12
2019-03-30T12:20:35.774Z,101371.98
2019-03-30T12:23:03.099Z,101363.53
2019-03-30T12:25:35.711Z,101365.06
2019-03-30T12:27:59.662Z,101365.84
2019-03-30T12:30:26.964Z,101369.41
2019-03-30T12:32:54.263Z,101361.19
2019-03-30T12:35:21.605Z,101355.63
2019-03-30T12:37:48.800Z,101355.77
2019-03-30T12:40:16.108Z,101345.41
2019-03-30T12:42:43.541Z,101338.20
2019-03-30T12:45:11.878Z,101340.14
2019-03-30T12:47:39.201Z,101339.69
2019-03-30T12:50:06.584Z,101344.84
2019-03-30T12:52:34.140Z,101334.66
2019-03-30T12:55:01.453Z,101331.00
2019-03-30T12:57:28.690Z,101324.73
2019-03-30T12:59:59.130Z,101325.08
2019-03-30T13:02:25.457Z,101323.03
2019-03-30T13:04:52.690Z,101319.45
2019-03-30T13:07:19.933Z,101315.80
2019-03-30T13:09:47.138Z,101314.80
2019-03-30T13:12:14.361Z,101309.84
2019-03-30T13:14:41.585Z,101311.98
2019-03-30T13:17:08.895Z,101307.59
2019-03-30T13:19:36.113Z,101308.91
2019-03-30T13:22:03.437Z,101306.42
2019-03-30T13:24:30.645Z,101304.13
2019-03-30T13:26:57.957Z,101308.98
2019-03-30T13:29:25.189Z,101302.07
2019-03-30T13:31:52.390Z,101300.28
2019-03-30T13:34:19.710Z,101298.59
2019-03-30T13:36:47.080Z,101301.52
2019-03-30T13:39:14.283Z,101299.03
2019-03-30T13:41:41.601Z,101287.65
2019-03-30T13:44:08.806Z,101297.31
2019-03-30T13:46:36.037Z,101296.15
2019-03-30T13:49:03.821Z,101291.13
2019-03-30T13:51:31.150Z,101292.87
2019-03-30T13:53:58.436Z,101286.98
2019-03-30T13:56:25.731Z,101289.61
2019-03-30T13:58:52.984Z,101286.16
2019-03-30T14:01:20.685Z,101289.27
2019-03-30T14:03:47.911Z,101289.69
2019-03-30T14:06:26.573Z,101284.34
2019-03-30T14:08:55.838Z,101293.99
2019-03-30T14:11:23.064Z,101282.19
2019-03-30T14:13:50.409Z,101281.05
2019-03-30T14:16:17.619Z,101273.58
2019-03-30T14:18:44.839Z,101272.86
2019-03-30T14:21:12.177Z,101271.71
2019-03-30T14:23:39.383Z,101274.15
2019-03-30T14:26:06.594Z,101276.73
2019-03-30T14:28:33.843Z,101272.45
2019-03-30T14:31:01.151Z,101265.04
2019-03-30T14:33:28.381Z,101265.78
2019-03-30T14:35:55.922Z,101259.70
2019-03-30T14:38:23.142Z,101256.31
2019-03-30T14:40:50.473Z,101250.55
2019-03-30T14:43:17.732Z,101255.31
2019-03-30T14:45:46.070Z,101246.00
2019-03-30T14:48:13.405Z,101244.56
2019-03-30T14:50:40.650Z,101247.94
2019-03-30T14:53:08.271Z,101238.80
2019-03-30T14:55:35.569Z,101241.88
2019-03-30T14:58:02.899Z,101238.52
2019-03-30T15:00:30.195Z,101238.56
2019-03-30T15:02:57.740Z,101234.45
2019-03-30T15:05:25.029Z,101231.73
2019-03-30T15:07:52.342Z,101234.48
2019-03-30T15:10:19.676Z,101231.48
2019-03-30T15:12:47.209Z,101229.26
2019-03-30T15:15:16.173Z,101228.73
2019-03-30T15:17:43.418Z,101226.01
2019-03-30T15:20:11.467Z,101221.10
2019-03-30T15:22:38.870Z,101223.61
2019-03-30T15:25:06.758Z,101212.67
2019-03-30T15:27:34.083Z,101215.88
2019-03-30T15:30:01.413Z,101217.69
2019-03-30T15:32:29.169Z,101217.65
2019-03-30T15:34:58.451Z,101215.59
2019-03-30T15:37:25.483Z,101211.84
2019-03-30T15:39:52.697Z,101209.06
2019-03-30T15:42:20.226Z,101205.72
2019-03-30T15:44:47.571Z,101206.22
2019-03-30T15:47:14.882Z,101204.59
2019-03-30T15:49:42.499Z,101209.09
2019-03-30T15:52:14.028Z,101201.26
2019-03-30T15:54:38.832Z,101197.95
2019-03-30T15:57:14.037Z,101198.77
2019-03-30T15:59:35.715Z,101202.78
2019-03-30T16:02:03.039Z,101199.50
2019-03-30T16:04:30.379Z,101196.17
2019-03-30T16:06:57.698Z,101191.77
2019-03-30T16:09:24.922Z,101192.64
2019-03-30T16:11:52.338Z,101186.14
2019-03-30T16:14:19.543Z,101182.84
2019-03-30T16:16:46.766Z,101179.51
2019-03-30T16:19:13.987Z,101187.66
2019-03-30T16:21:41.248Z,101186.36
2019-03-30T16:24:08.471Z,101185.02
2019-03-30T16:26:42.323Z,101183.64
2019-03-30T16:29:05.026Z,101186.06
2019-03-30T16:31:32.342Z,101186.74
2019-03-30T16:33:59.657Z,101188.70
2019-03-30T16:36:26.985Z,101189.64
2019-03-30T16:38:54.205Z,101186.29
2019-03-30T16:41:21.562Z,101182.03
2019-03-30T16:43:48.794Z,101183.35
